createdAt,value
2023-04-07T00:00:16.007Z,99834.31
2023-04-07T00:02:47.182Z,99818.22
2023-04-07T00:05:17.389Z,99833.06
2023-04-07T00:07:55.108Z,99828.34
2023-04-07T00:10:24.763Z,99828.56
2023-04-07T00:12:52.697Z,99835.34
2023-04-07T00:15:20.520Z,99827.09
2023-04-07T00:17:48.461Z,99820.31
2023-04-07T00:20:16.217Z,99825.44
2023-04-07T00:22:48.831Z,99822.56
2023-04-07T00:25:18.722Z,99823.59
2023-04-07T00:27:46.484Z,99818.03
2023-04-07T00:30:15.309Z,99816.81
2023-04-07T00:32:42.940Z,99816.81
2023-04-07T00:35:15.602Z,99815.34
2023-04-07T00:37:43.211Z,99820.91
2023-04-07T00:40:14.298Z,99820.09
2023-04-07T00:42:42.173Z,99812.88
2023-04-07T00:45:11.470Z,99808.53
2023-04-07T00:47:39.262Z,99806.88
2023-04-07T00:50:10.421Z,99809.78
2023-04-07T00:52:38.212Z,99816.38
2023-04-07T00:55:06.176Z,99813.31
2023-04-07T00:57:33.841Z,99806.69
2023-04-07T01:00:05.312Z,99807.72
2023-04-07T01:02:43.216Z,99805.06
2023-04-07T01:05:26.737Z,99795.16
2023-04-07T01:08:18.778Z,99799.47
2023-04-07T01:11:26.164Z,99795.53
2023-04-07T01:13:55.687Z,99790.00
2023-04-07T01:16:38.785Z,99790.19
2023-04-07T01:19:31.662Z,99791.00
2023-04-07T01:22:01.275Z,99794.72
2023-04-07T01:24:34.996Z,99788.34
2023-04-07T01:27:22.810Z,99794.72
2023-04-07T01:29:51.694Z,99792.25
2023-04-07T01:32:21.514Z,99785.66
2023-04-07T01:34:51.852Z,99781.09
2023-04-07T01:37:21.429Z,99782.97
2023-04-07T01:39:49.158Z,99773.25
2023-04-07T01:42:18.255Z,99774.09
2023-04-07T01:44:47.334Z,99775.34
2023-04-07T01:47:16.861Z,99770.78
2023-04-07T01:49:49.103Z,99770.78
2023-04-07T01:52:18.227Z,99772.66
2023-04-07T01:54:48.627Z,99770.41
2023-04-07T01:57:16.505Z,99772.87
2023-04-07T01:59:44.052Z,99772.44
2023-04-07T02:02:11.768Z,99773.69
2023-04-07T02:04:55.508Z,99773.25
2023-04-07T02:07:38.091Z,99771.22
2023-04-07T02:10:08.336Z,99778.63
2023-04-07T02:12:39.104Z,99771.00
2023-04-07T02:15:12.730Z,99775.31
2023-04-07T02:17:45.764Z,99775.31
2023-04-07T02:20:17.566Z,99772.44
2023-04-07T02:22:45.868Z,99772.44
2023-04-07T02:25:34.134Z,99774.31
2023-04-07T02:28:04.687Z,99776.16
2023-04-07T02:30:35.667Z,99769.16
2023-04-07T02:33:03.443Z,99770.41
2023-04-07T02:35:31.450Z,99778.88
2023-04-07T02:38:01.526Z,99774.13
2023-04-07T02:40:31.258Z,99782.38
2023-04-07T02:42:58.866Z,99771.44
2023-04-07T02:45:31.431Z,99775.78
2023-04-07T02:47:59.076Z,99777.44
2023-04-07T02:50:27.178Z,99772.06
2023-04-07T02:52:59.606Z,99773.94
2023-04-07T02:55:28.143Z,99773.28
2023-04-07T02:57:58.179Z,99777.84
2023-04-07T03:00:28.067Z,99776.59
2023-04-07T03:02:55.842Z,99770.81
2023-04-07T03:05:26.400Z,99772.87
2023-04-07T03:07:54.021Z,99772.25
2023-04-07T03:10:21.597Z,99773.72
2023-04-07T03:12:51.625Z,99770.41
2023-04-07T03:15:19.359Z,99767.50
2023-04-07T03:17:51.490Z,99764.63
2023-04-07T03:20:19.556Z,99779.87
2023-04-07T03:22:47.503Z,99769.12
2023-04-07T03:25:15.170Z,99770.78
2023-04-07T03:27:42.830Z,99766.03
2023-04-07T03:30:12.093Z,99768.31
2023-04-07T03:32:39.815Z,99765.41
2023-04-07T03:35:10.356Z,99764.81
2023-04-07T03:37:37.963Z,99762.53
2023-04-07T03:40:05.842Z,99757.16
2023-04-07T03:42:33.549Z,99765.22
2023-04-07T03:45:01.325Z,99767.91
2023-04-07T03:47:31.109Z,99769.56
2023-04-07T03:50:01.263Z,99761.91
2023-04-07T03:52:29.858Z,99767.09
2023-04-07T03:54:59.598Z,99767.28
2023-04-07T03:57:27.272Z,99777.41
2023-04-07T03:59:56.333Z,99768.94
2023-04-07T04:02:24.095Z,99776.59
2023-04-07T04:04:51.870Z,99777.63
2023-04-07T04:07:19.616Z,99778.25
2023-04-07T04:09:47.196Z,99783.59
2023-04-07T04:12:14.838Z,99787.31
2023-04-07T04:14:42.502Z,99790.81
2023-04-07T04:17:10.168Z,99787.09
2023-04-07T04:19:37.800Z,99780.91
2023-04-07T04:22:07.198Z,99786.88
2023-04-07T04:24:35.035Z,99791.84
2023-04-07T04:27:02.859Z,99802.56
2023-04-07T04:29:33.098Z,99798.22
2023-04-07T04:32:00.768Z,99793.91
2023-04-07T04:34:28.444Z,99797.19
2023-04-07T04:36:56.085Z,99802.13
2023-04-07T04:39:23.865Z,99798.41
2023-04-07T04:41:51.889Z,99795.09
2023-04-07T04:44:19.513Z,99801.28
2023-04-07T04:46:47.147Z,99792.81
2023-04-07T04:49:15.783Z,99795.91
2023-04-07T04:51:45.860Z,99796.72
2023-04-07T04:54:15.921Z,99805.81
2023-04-07T04:56:44.646Z,99805.78
2023-04-07T04:59:12.323Z,99809.69
2023-04-07T05:01:40.018Z,99819.38
2023-04-07T05:04:09.550Z,99815.28
2023-04-07T05:06:37.331Z,99811.75
2023-04-07T05:09:04.965Z,99801.25
2023-04-07T05:11:35.016Z,99809.09
2023-04-07T05:14:02.698Z,99816.31
2023-04-07T05:16:30.373Z,99825.59
2023-04-07T05:18:58.015Z,99833.63
2023-04-07T05:21:27.157Z,99829.88
2023-04-07T05:23:59.394Z,99822.66
2023-04-07T05:26:27.211Z,99833.19
2023-04-07T05:28:55.138Z,99831.09
2023-04-07T05:31:25.435Z,99830.25
2023-04-07T05:33:54.049Z,99826.75
2023-04-07T05:36:21.793Z,99834.56
2023-04-07T05:38:49.724Z,99837.44
2023-04-07T05:41:20.076Z,99832.03
2023-04-07T05:43:47.751Z,99839.63
2023-04-07T05:46:17.817Z,99841.66
2023-04-07T05:48:45.549Z,99839.97
2023-04-07T05:51:13.527Z,99842.19
2023-04-07T05:53:41.120Z,99836.13
2023-04-07T05:56:12.414Z,99837.06
2023-04-07T05:58:40.113Z,99837.00
2023-04-07T06:01:07.755Z,99835.75
2023-04-07T06:03:35.494Z,99837.47
2023-04-07T06:06:03.317Z,99847.78
2023-04-07T06:08:31.002Z,99842.63
2023-04-07T06:11:05.959Z,99844.47
2023-04-07T06:13:33.830Z,99839.03
2023-04-07T06:16:01.556Z,99841.13
2023-04-07T06:18:31.765Z,99838.97
2023-04-07T06:21:02.342Z,99836.88
2023-04-07T06:23:29.991Z,99841.22
2023-04-07T06:25:57.645Z,99838.38
2023-04-07T06:28:25.576Z,99835.66
2023-04-07T06:30:53.322Z,99836.50
2023-04-07T06:33:26.278Z,99835.16
2023-04-07T06:35:53.939Z,99844.66
2023-04-07T06:38:21.772Z,99853.75
2023-04-07T06:40:49.381Z,99855.44
2023-04-07T06:43:16.965Z,99853.34
2023-04-07T06:45:44.756Z,99858.00
2023-04-07T06:48:14.569Z,99861.75
2023-04-07T06:50:42.268Z,99854.56
2023-04-07T06:53:12.560Z,99862.78
2023-04-07T06:55:40.515Z,99868.50
2023-04-07T06:58:09.397Z,99860.59
2023-04-07T07:00:37.809Z,99874.81
2023-04-07T07:03:05.553Z,99871.69
2023-04-07T07:05:33.643Z,99870.47
2023-04-07T07:08:01.285Z,99872.56
2023-04-07T07:10:28.958Z,99875.88
2023-04-07T07:12:56.584Z,99882.16
2023-04-07T07:15:25.274Z,99873.75
2023-04-07T07:17:52.982Z,99897.13
2023-04-07T07:20:23.441Z,99901.03
2023-04-07T07:22:51.628Z,99903.19
2023-04-07T07:25:19.350Z,99908.81
2023-04-07T07:27:47.048Z,99914.00
2023-04-07T07:30:14.848Z,99914.19
2023-04-07T07:32:44.905Z,99913.97
2023-04-07T07:35:18.268Z,99920.78
2023-04-07T07:37:48.559Z,99926.13
2023-04-07T07:40:17.340Z,99921.56
2023-04-07T07:42:45.038Z,99912.44
2023-04-07T07:45:14.062Z,99926.47
2023-04-07T07:47:42.353Z,99920.66
2023-04-07T07:50:13.566Z,99923.09
2023-04-07T07:52:41.870Z,99929.22
2023-04-07T07:55:10.315Z,99930.28
2023-04-07T07:57:40.069Z,99924.34
2023-04-07T08:00:10.505Z,99930.88
2023-04-07T08:02:40.859Z,99942.09
2023-04-07T08:05:12.842Z,99946.91
2023-04-07T08:07:40.564Z,99955.91
2023-04-07T08:10:08.771Z,99944.81
2023-04-07T08:12:36.700Z,99944.66
2023-04-07T08:15:04.560Z,99949.59
2023-04-07T08:17:32.197Z,99954.44
2023-04-07T08:19:59.953Z,99954.16
2023-04-07T08:22:27.678Z,99962.06
2023-04-07T08:24:55.304Z,99953.13
2023-04-07T08:27:22.938Z,99957.88
2023-04-07T08:30:02.695Z,99964.00
2023-04-07T08:32:42.930Z,99966.41
2023-04-07T08:35:11.640Z,99963.50
2023-04-07T08:37:41.175Z,99961.53
2023-04-07T08:40:09.770Z,99967.84
2023-04-07T08:42:42.300Z,99970.53
2023-04-07T08:45:11.405Z,99960.06
2023-04-07T08:47:39.104Z,99965.44
2023-04-07T08:50:12.460Z,99965.28
2023-04-07T08:52:51.526Z,99967.22
2023-04-07T08:55:21.885Z,99963.22
2023-04-07T08:57:49.703Z,99960.97
2023-04-07T09:00:17.642Z,99963.28
2023-04-07T09:02:47.914Z,99962.25
2023-04-07T09:05:15.679Z,99963.34
2023-04-07T09:07:46.938Z,99964.03
2023-04-07T09:10:14.609Z,99965.06
2023-04-07T09:12:42.325Z,99963.94
2023-04-07T09:15:12.433Z,99961.69
2023-04-07T09:17:40.332Z,99957.72
2023-04-07T09:20:10.514Z,99956.41
2023-04-07T09:22:42.486Z,99963.87
2023-04-07T09:25:17.614Z,99965.50
2023-04-07T09:28:01.797Z,99962.41
2023-04-07T09:30:31.258Z,99961.09
2023-04-07T09:33:00.599Z,99973.66
2023-04-07T09:35:29.867Z,99962.41
2023-04-07T09:38:07.470Z,99968.41
2023-04-07T09:40:36.572Z,99971.91
2023-04-07T09:43:07.728Z,99966.50
2023-04-07T09:45:39.399Z,99974.94
2023-04-07T09:48:08.888Z,99970.87
2023-04-07T09:50:49.440Z,99971.91
2023-04-07T09:53:19.103Z,99971.94
2023-04-07T09:55:50.515Z,99975.72
2023-04-07T09:58:18.940Z,99975.22
2023-04-07T10:00:47.218Z,99977.28
2023-04-07T10:03:16.802Z,99968.91
2023-04-07T10:05:45.824Z,99971.91
2023-04-07T10:08:13.658Z,99966.06
2023-04-07T10:10:43.869Z,99966.97
2023-04-07T10:13:13.751Z,99975.66
2023-04-07T10:15:41.716Z,99978.69
2023-04-07T10:18:10.352Z,99971.00
2023-04-07T10:20:41.603Z,99972.06
2023-04-07T10:23:22.167Z,99973.28
2023-04-07T10:25:52.494Z,99976.00
2023-04-07T10:28:22.492Z,99970.37
2023-04-07T10:30:51.598Z,99975.50
2023-04-07T10:33:20.194Z,99972.66
2023-04-07T10:36:10.695Z,99975.34
2023-04-07T10:38:39.547Z,99977.31
2023-04-07T10:41:36.465Z,99974.44
2023-04-07T10:44:42.219Z,99977.22
2023-04-07T10:47:12.347Z,99974.31
2023-04-07T10:49:39.955Z,99969.53
2023-04-07T10:52:26.045Z,99965.81
2023-04-07T10:55:34.797Z,99973.59
2023-04-07T10:58:33.904Z,99983.72
2023-04-07T11:01:02.251Z,99982.28
2023-04-07T11:03:35.145Z,99982.44
2023-04-07T11:06:17.192Z,99982.78
2023-04-07T11:08:50.543Z,99990.84
2023-04-07T11:11:23.299Z,99986.84
2023-04-07T11:13:52.522Z,99982.00
2023-04-07T11:16:29.378Z,99985.19
2023-04-07T11:18:59.852Z,99980.19
2023-04-07T11:21:27.892Z,99988.94
2023-04-07T11:23:55.487Z,99975.09
2023-04-07T11:26:23.658Z,99979.66
2023-04-07T11:28:53.647Z,99991.56
2023-04-07T11:31:27.745Z,99980.75
2023-04-07T11:33:59.413Z,99982.22
2023-04-07T11:36:43.195Z,99985.66
2023-04-07T11:39:23.580Z,99980.94
2023-04-07T11:41:52.035Z,99984.63
2023-04-07T11:44:19.790Z,99975.72
2023-04-07T11:46:57.794Z,99982.22
2023-04-07T11:49:28.728Z,99983.84
2023-04-07T11:52:02.070Z,99985.44
2023-04-07T11:54:41.849Z,99983.25
2023-04-07T11:57:12.667Z,99987.22
2023-04-07T11:59:42.279Z,99985.19
2023-04-07T12:02:10.998Z,99979.81
2023-04-07T12:04:40.755Z,99987.94
2023-04-07T12:07:11.179Z,99988.81
2023-04-07T12:09:41.362Z,99988.66
2023-04-07T12:12:10.640Z,99997.34
2023-04-07T12:14:40.684Z,99993.41
2023-04-07T12:17:09.924Z,99992.13
2023-04-07T12:19:39.826Z,99986.97
2023-04-07T12:22:08.786Z,99983.69
2023-04-07T12:24:36.489Z,99983.84
2023-04-07T12:27:04.598Z,99983.81
2023-04-07T12:29:32.163Z,99981.06
2023-04-07T12:31:59.885Z,99976.03
2023-04-07T12:34:30.096Z,99971.91
2023-04-07T12:36:57.790Z,99972.25
2023-04-07T12:39:25.469Z,99975.22
2023-04-07T12:41:53.385Z,99980.03
2023-04-07T12:44:21.496Z,99987.06
2023-04-07T12:46:49.068Z,99982.81
2023-04-07T12:49:16.714Z,99973.34
2023-04-07T12:51:44.443Z,99985.31
2023-04-07T12:54:15.004Z,99983.34
2023-04-07T12:56:42.684Z,99989.22
2023-04-07T12:59:15.438Z,99988.63
2023-04-07T13:01:43.238Z,99989.50
2023-04-07T13:04:11.230Z,99986.28
2023-04-07T13:06:38.979Z,99978.91
2023-04-07T13:09:06.579Z,99985.81
2023-04-07T13:11:34.314Z,99988.84
2023-04-07T13:14:02.044Z,99992.03
2023-04-07T13:16:32.583Z,99981.62
2023-04-07T13:19:02.104Z,99984.16
2023-04-07T13:21:43.724Z,99987.22
2023-04-07T13:24:14.360Z,99984.03
2023-04-07T13:26:41.985Z,99985.97
2023-04-07T13:29:12.218Z,99982.81
2023-04-07T13:31:39.850Z,99981.00
2023-04-07T13:34:07.686Z,99982.47
2023-04-07T13:36:37.741Z,99987.00
2023-04-07T13:39:05.438Z,99982.00
2023-04-07T13:41:33.263Z,99984.53
2023-04-07T13:44:03.867Z,99978.87
2023-04-07T13:46:31.811Z,99985.06
2023-04-07T13:48:59.435Z,99985.13
2023-04-07T13:51:28.003Z,99987.78
2023-04-07T13:53:55.688Z,99990.38
2023-04-07T13:56:23.640Z,99991.41
2023-04-07T13:58:51.551Z,99998.47
2023-04-07T14:01:19.216Z,99992.25
2023-04-07T14:03:48.014Z,100001.53
2023-04-07T14:06:16.116Z,100001.25
2023-04-07T14:08:46.543Z,100007.69
2023-04-07T14:11:18.063Z,99996.09
2023-04-07T14:13:46.559Z,100006.13
2023-04-07T14:16:15.451Z,99996.69
2023-04-07T14:18:43.296Z,99995.06
2023-04-07T14:21:15.260Z,99994.69
2023-04-07T14:23:43.241Z,99997.16
2023-04-07T14:26:14.070Z,99998.50
2023-04-07T14:28:42.336Z,99999.13
2023-04-07T14:31:15.153Z,100003.69
2023-04-07T14:33:46.705Z,100004.28
2023-04-07T14:36:17.745Z,100007.56
2023-04-07T14:38:50.538Z,100001.72
2023-04-07T14:41:18.300Z,100007.34
2023-04-07T14:43:48.218Z,100001.41
2023-04-07T14:46:16.042Z,100001.41
2023-04-07T14:48:43.700Z,100001.19
2023-04-07T14:51:13.884Z,100004.72
2023-04-07T14:53:45.999Z,100003.28
2023-04-07T14:56:14.200Z,100015.06
2023-04-07T14:58:41.869Z,100010.03
2023-04-07T15:01:11.854Z,100009.69
2023-04-07T15:03:39.590Z,100014.84
2023-04-07T15:06:10.223Z,100003.88
2023-04-07T15:08:38.800Z,100007.25
2023-04-07T15:11:08.025Z,100015.22
2023-04-07T15:13:36.618Z,100010.88
2023-04-07T15:16:15.155Z,100012.38
2023-04-07T15:18:44.766Z,100014.91
2023-04-07T15:21:16.838Z,100016.94
2023-04-07T15:23:44.420Z,100015.06
2023-04-07T15:26:12.464Z,100016.34
2023-04-07T15:28:40.373Z,100012.91
2023-04-07T15:31:10.767Z,100013.91
2023-04-07T15:33:40.488Z,100006.87
2023-04-07T15:36:13.528Z,100012.06
2023-04-07T15:38:42.517Z,100010.25
2023-04-07T15:41:15.483Z,100017.28
2023-04-07T15:43:43.163Z,100016.25
2023-04-07T15:46:11.113Z,100017.06
2023-04-07T15:48:38.705Z,100022.69
2023-04-07T15:51:06.667Z,100017.13
2023-04-07T15:53:34.461Z,100015.88
2023-04-07T15:56:02.077Z,100023.34
2023-04-07T15:58:35.666Z,100022.16
2023-04-07T16:01:05.227Z,100017.22
2023-04-07T16:03:33.111Z,100019.75
2023-04-07T16:06:01.040Z,100026.41
2023-04-07T16:08:28.663Z,100029.09
2023-04-07T16:10:56.243Z,100035.09
2023-04-07T16:13:24.648Z,100024.81
2023-04-07T16:15:57.046Z,100017.34
2023-04-07T16:18:24.726Z,100035.59
2023-04-07T16:20:55.762Z,100031.88
2023-04-07T16:23:23.581Z,100041.19
2023-04-07T16:25:51.448Z,100044.53
2023-04-07T16:28:19.362Z,100039.81
2023-04-07T16:30:47.057Z,100041.44
2023-04-07T16:33:14.743Z,100038.75
2023-04-07T16:35:43.688Z,100039.56
2023-04-07T16:38:14.792Z,100044.37
2023-04-07T16:41:00.719Z,100056.19
2023-04-07T16:43:31.662Z,100052.66
2023-04-07T16:46:01.916Z,100050.41
2023-04-07T16:48:29.742Z,100052.91
2023-04-07T16:50:59.894Z,100048.56
2023-04-07T16:53:27.539Z,100058.53
2023-04-07T16:55:55.282Z,100059.12
2023-04-07T16:58:22.875Z,100064.72
2023-04-07T17:00:53.475Z,100055.84
2023-04-07T17:03:23.870Z,100050.22
2023-04-07T17:05:51.540Z,100061.22
2023-04-07T17:08:21.782Z,100050.50
2023-04-07T17:10:49.601Z,100067.44
2023-04-07T17:13:17.268Z,100065.19
2023-04-07T17:15:44.930Z,100070.56
2023-04-07T17:18:12.676Z,100076.38
2023-04-07T17:20:40.355Z,100074.34
2023-04-07T17:23:09.822Z,100083.91
2023-04-07T17:25:38.244Z,100077.94
2023-04-07T17:28:05.967Z,100087.87
2023-04-07T17:30:35.661Z,100089.97
2023-04-07T17:33:03.719Z,100089.34
2023-04-07T17:35:31.654Z,100088.94
2023-04-07T17:38:02.611Z,100093.94
2023-04-07T17:40:31.339Z,100090.63
2023-04-07T17:43:00.182Z,100088.97
2023-04-07T17:45:27.898Z,100095.63
2023-04-07T17:47:55.886Z,100103.09
2023-04-07T17:50:24.810Z,100111.16
2023-04-07T17:52:52.545Z,100108.91
2023-04-07T17:55:20.447Z,100123.19
2023-04-07T17:57:48.111Z,100121.75
2023-04-07T18:00:16.143Z,100132.53
2023-04-07T18:02:44.203Z,100138.34
2023-04-07T18:05:12.468Z,100142.50
2023-04-07T18:07:40.089Z,100145.41
2023-04-07T18:10:10.673Z,100137.12
2023-04-07T18:12:38.935Z,100153.50
2023-04-07T18:15:07.219Z,100144.16
2023-04-07T18:17:34.884Z,100151.63
2023-04-07T18:20:04.822Z,100160.31
2023-04-07T18:22:32.932Z,100161.78
2023-04-07T18:25:03.140Z,100162.81
2023-04-07T18:27:33.152Z,100161.78
2023-04-07T18:30:03.275Z,100163.25
2023-04-07T18:32:33.475Z,100169.44
2023-04-07T18:35:01.306Z,100170.88
2023-04-07T18:37:30.541Z,100173.56
2023-04-07T18:40:00.515Z,100170.47
2023-04-07T18:42:30.243Z,100178.09
2023-04-07T18:44:58.092Z,100181.84
2023-04-07T18:47:27.408Z,100176.88
2023-04-07T18:49:58.772Z,100178.53
2023-04-07T18:52:28.451Z,100185.38
2023-04-07T18:54:56.165Z,100178.56
2023-04-07T18:57:23.878Z,100186.03
2023-04-07T18:59:52.916Z,100189.53
2023-04-07T19:02:20.727Z,100196.19
2023-04-07T19:04:49.346Z,100186.47
2023-04-07T19:07:17.032Z,100191.41
2023-04-07T19:09:46.726Z,100188.12
2023-04-07T19:12:14.463Z,100184.00
2023-04-07T19:14:42.105Z,100181.31
2023-04-07T19:17:12.343Z,100194.31
2023-04-07T19:19:44.391Z,100187.72
2023-04-07T19:22:12.554Z,100191.66
2023-04-07T19:24:40.734Z,100187.53
2023-04-07T19:27:12.174Z,100191.88
2023-04-07T19:29:43.146Z,100193.72
2023-04-07T19:32:11.186Z,100196.81
2023-04-07T19:34:39.993Z,100200.75
2023-04-07T19:37:07.669Z,100199.75
2023-04-07T19:39:35.756Z,100207.19
2023-04-07T19:42:05.563Z,100205.53
2023-04-07T19:44:34.351Z,100206.78
2023-04-07T19:47:06.080Z,100206.78
2023-04-07T19:49:33.756Z,100209.28
2023-04-07T19:52:01.362Z,100211.53
2023-04-07T19:54:28.985Z,100212.38
2023-04-07T19:56:57.967Z,100211.75
2023-04-07T19:59:25.715Z,100216.72
2023-04-07T20:01:53.473Z,100219.00
2023-04-07T20:04:21.111Z,100217.97
2023-04-07T20:06:51.722Z,100214.84
2023-04-07T20:09:20.485Z,100213.22
2023-04-07T20:11:48.357Z,100214.47
2023-04-07T20:14:16.016Z,100220.03
2023-04-07T20:16:43.928Z,100222.31
2023-04-07T20:19:11.670Z,100210.53
2023-04-07T20:21:39.251Z,100209.28
2023-04-07T20:24:06.954Z,100214.66
2023-04-07T20:26:38.126Z,100218.00
2023-04-07T20:29:05.823Z,100216.72
2023-04-07T20:31:33.394Z,100225.19
2023-04-07T20:34:01.075Z,100228.72
2023-04-07T20:36:28.690Z,100227.25
2023-04-07T20:38:56.653Z,100222.94
2023-04-07T20:41:26.813Z,100225.19
2023-04-07T20:43:57.102Z,100225.19
2023-04-07T20:46:25.060Z,100219.22
2023-04-07T20:48:52.831Z,100223.97
2023-04-07T20:51:20.520Z,100220.66
2023-04-07T20:53:48.381Z,100223.97
2023-04-07T20:56:16.395Z,100222.53
2023-04-07T20:58:43.999Z,100217.97
2023-04-07T21:01:11.582Z,100221.28
2023-04-07T21:03:39.332Z,100220.25
2023-04-07T21:06:07.077Z,100221.50
2023-04-07T21:08:36.722Z,100227.88
2023-04-07T21:11:04.412Z,100225.81
2023-04-07T21:13:32.072Z,100219.38
2023-04-07T21:16:01.416Z,100224.13
2023-04-07T21:18:29.185Z,100223.09
2023-04-07T21:21:02.091Z,100226.22
2023-04-07T21:23:31.457Z,100227.25
2023-04-07T21:26:05.077Z,100230.13
2023-04-07T21:28:32.710Z,100237.56
2023-04-07T21:31:01.188Z,100239.44
2023-04-07T21:33:29.110Z,100240.87
2023-04-07T21:35:56.858Z,100242.28
2023-04-07T21:38:24.851Z,100233.84
2023-04-07T21:40:52.471Z,100231.94
2023-04-07T21:43:20.381Z,100233.16
2023-04-07T21:45:48.080Z,100240.81
2023-04-07T21:48:16.223Z,100237.91
2023-04-07T21:50:43.809Z,100234.81
2023-04-07T21:53:11.707Z,100241.00
2023-04-07T21:55:41.991Z,100247.19
2023-04-07T21:58:12.436Z,100242.25
2023-04-07T22:00:40.072Z,100248.03
2023-04-07T22:03:08.020Z,100246.78
2023-04-07T22:05:36.350Z,100246.16
2023-04-07T22:08:04.485Z,100249.22
2023-04-07T22:10:32.593Z,100242.41
2023-04-07T22:13:00.263Z,100250.03
2023-04-07T22:15:30.649Z,100250.91
2023-04-07T22:17:58.803Z,100248.84
2023-04-07T22:20:27.911Z,100254.84
2023-04-07T22:22:57.590Z,100248.00
2023-04-07T22:25:26.372Z,100243.84
2023-04-07T22:27:53.980Z,100251.91
2023-04-07T22:30:24.321Z,100253.13
2023-04-07T22:32:52.526Z,100253.75
2023-04-07T22:35:20.268Z,100257.09
2023-04-07T22:37:50.368Z,100251.06
2023-04-07T22:40:18.029Z,100251.28
2023-04-07T22:42:45.633Z,100253.59
2023-04-07T22:45:13.278Z,100255.25
2023-04-07T22:47:41.331Z,100259.59
2023-04-07T22:50:11.824Z,100260.78
2023-04-07T22:52:39.554Z,100257.69
2023-04-07T22:55:07.948Z,100253.75
2023-04-07T22:57:35.551Z,100259.12
2023-04-07T23:00:06.018Z,100268.66
2023-04-07T23:02:33.693Z,100264.69
2023-04-07T23:05:01.430Z,100262.62
2023-04-07T23:07:31.426Z,100260.78
2023-04-07T23:09:59.036Z,100269.91
2023-04-07T23:12:26.655Z,100265.78
2023-04-07T23:14:55.238Z,100262.00
2023-04-07T23:17:24.990Z,100261.63
2023-04-07T23:19:52.609Z,100259.31
2023-04-07T23:22:20.262Z,100255.41
2023-04-07T23:24:47.924Z,100263.66
2023-04-07T23:27:15.610Z,100256.59
2023-04-07T23:29:43.227Z,100260.34
2023-04-07T23:32:13.648Z,100261.16
2023-04-07T23:34:44.117Z,100261.78
2023-04-07T23:37:11.773Z,100262.81
2023-04-07T23:39:39.466Z,100258.06
2023-04-07T23:42:07.139Z,100267.56
2023-04-07T23:44:34.801Z,100265.28
2023-04-07T23:47:02.417Z,100258.69
2023-04-07T23:49:30.021Z,100262.62
2023-04-07T23:51:57.595Z,100272.31
2023-04-07T23:54:25.373Z,100262.81
2023-04-07T23:56:54.065Z,100267.97
2023-04-07T23:59:21.664Z,100277.06
